Time;durP1;ratioP1;P1;durP2;ratioP2;P2;SDS_P1;SDS_P2;PMS_P1;PMS_P2;Temp;Humidity;BMP_temperature;BMP_pressure;BME280_temperature;BME280_humidity;BME280_pressure;Samples;Min_cycle;Max_cycle;Signal;HPM_P1;HPM_P2
2024/01/07 00:02:10;;;;;;;26.73;9.00;;;;;;;;;;4973850;28;20508;-80
2024/01/07 00:04:35;;;;;;;25.50;8.45;;;;;;;;;;4980990;28;20047;-77
2024/01/07 00:07:01;;;;;;;28.65;9.77;;;;;;;;;;4986743;28;20065;-77
2024/01/07 00:09:26;;;;;;;24.45;9.20;;;;;;;;;;4975460;28;20092;-77
2024/01/07 00:11:51;;;;;;;88.10;11.85;;;;;;;;;;4988250;28;20143;-78
2024/01/07 00:14:17;;;;;;;25.02;9.18;;;;;;;;;;4988101;28;20038;-78
2024/01/07 00:16:42;;;;;;;22.95;8.30;;;;;;;;;;4973527;28;20368;-76
2024/01/07 00:19:07;;;;;;;21.52;8.55;;;;;;;;;;4985615;28;20043;-77
2024/01/07 00:21:33;;;;;;;14.32;7.15;;;;;;;;;;4989706;28;20034;-78
2024/01/07 00:23:58;;;;;;;19.15;7.45;;;;;;;;;;4987245;28;20022;-78
2024/01/07 00:26:23;;;;;;;20.40;7.60;;;;;;;;;;4989173;28;20026;-78
2024/01/07 00:28:48;;;;;;;20.90;8.02;;;;;;;;;;4980115;28;20081;-77
2024/01/07 00:31:14;;;;;;;22.52;8.20;;;;;;;;;;4985592;28;20043;-77
2024/01/07 00:33:39;;;;;;;16.98;6.95;;;;;;;;;;4984481;28;20122;-77
2024/01/07 00:36:05;;;;;;;20.65;8.15;;;;;;;;;;4983132;28;20022;-77
2024/01/07 00:38:30;;;;;;;21.90;8.27;;;;;;;;;;4990499;28;20072;-78
2024/01/07 00:40:55;;;;;;;22.20;8.13;;;;;;;;;;4982858;28;20824;-79
2024/01/07 00:43:20;;;;;;;25.08;7.93;;;;;;;;;;4988101;28;20038;-77
2024/01/07 00:45:46;;;;;;;25.15;8.43;;;;;;;;;;4972367;28;20031;-78
2024/01/07 00:48:12;;;;;;;24.50;8.15;;;;;;;;;;4971921;28;20031;-78
2024/01/07 00:50:37;;;;;;;18.13;7.75;;;;;;;;;;4973024;28;20383;-77
2024/01/07 00:53:02;;;;;;;16.77;7.53;;;;;;;;;;4963836;28;20495;-77
2024/01/07 00:55:27;;;;;;;22.20;7.82;;;;;;;;;;4981662;28;20070;-77
2024/01/07 00:57:53;;;;;;;17.85;7.40;;;;;;;;;;4972406;28;20031;-79
2024/01/07 01:00:18;;;;;;;28.35;7.72;;;;;;;;;;4985924;28;20439;-77
2024/01/07 01:02:44;;;;;;;21.60;7.40;;;;;;;;;;4974229;28;20080;-77
2024/01/07 01:05:09;;;;;;;15.13;6.88;;;;;;;;;;4986216;28;20058;-79
2024/01/07 01:07:34;;;;;;;13.98;6.10;;;;;;;;;;4989295;28;20494;-78
2024/01/07 01:10:00;;;;;;;16.58;6.25;;;;;;;;;;4990804;28;20054;-78
2024/01/07 01:12:25;;;;;;;17.13;6.70;;;;;;;;;;4988853;28;20048;-78
2024/01/07 01:14:50;;;;;;;14.35;6.65;;;;;;;;;;4992096;28;20637;-77
2024/01/07 01:17:15;;;;;;;14.60;7.38;;;;;;;;;;4989674;28;20125;-78
2024/01/07 01:19:41;;;;;;;11.43;5.47;;;;;;;;;;4986285;28;20419;-79
2024/01/07 01:22:06;;;;;;;12.75;5.47;;;;;;;;;;4984892;28;23048;-79
2024/01/07 01:24:31;;;;;;;13.80;6.22;;;;;;;;;;4990286;28;20057;-78
2024/01/07 01:26:57;;;;;;;121.22;11.95;;;;;;;;;;4978782;28;20042;-79
2024/01/07 01:29:22;;;;;;;17.98;7.07;;;;;;;;;;4983556;28;20122;-80
2024/01/07 01:31:47;;;;;;;12.90;5.25;;;;;;;;;;4978734;28;20038;-78
2024/01/07 01:34:13;;;;;;;19.02;6.50;;;;;;;;;;4993177;28;20034;-77
2024/01/07 01:36:38;;;;;;;14.80;5.72;;;;;;;;;;4991041;28;20045;-77
2024/01/07 01:39:03;;;;;;;13.68;5.72;;;;;;;;;;4992971;28;20045;-75
2024/01/07 01:41:29;;;;;;;16.92;6.53;;;;;;;;;;4990830;28;20038;-78
2024/01/07 01:43:59;;;;;;;37.38;7.18;;;;;;;;;;4983980;28;20067;-77
2024/01/07 01:46:24;;;;;;;65.68;9.30;;;;;;;;;;4980365;28;20058;-78
2024/01/07 01:48:50;;;;;;;14.55;6.82;;;;;;;;;;4993378;28;20407;-77
2024/01/07 01:51:16;;;;;;;17.25;6.97;;;;;;;;;;4990587;28;20050;-77
2024/01/07 01:53:41;;;;;;;19.77;7.05;;;;;;;;;;4975450;28;20034;-77
2024/01/07 01:56:07;;;;;;;20.05;7.40;;;;;;;;;;4989679;28;20446;-79
2024/01/07 01:58:33;;;;;;;14.18;5.95;;;;;;;;;;4991650;28;20034;-76
2024/01/07 02:00:58;;;;;;;54.72;8.60;;;;;;;;;;4985488;28;20042;-77
2024/01/07 02:03:25;;;;;;;16.27;6.93;;;;;;;;;;4982682;28;20096;-77
2024/01/07 02:05:50;;;;;;;16.70;7.28;;;;;;;;;;4967460;28;20066;-77
2024/01/07 02:08:18;;;;;;;17.40;7.80;;;;;;;;;;4988281;28;20068;-78
2024/01/07 02:10:44;;;;;;;18.83;7.70;;;;;;;;;;4986901;28;20490;-77
2024/01/07 02:13:10;;;;;;;18.35;7.22;;;;;;;;;;4985777;28;20112;-77
2024/01/07 02:15:35;;;;;;;18.77;7.18;;;;;;;;;;4992147;28;20101;-79
2024/01/07 02:18:01;;;;;;;17.08;7.35;;;;;;;;;;4991139;28;20113;-77
2024/01/07 02:20:26;;;;;;;21.65;7.25;;;;;;;;;;4990281;28;20038;-77
2024/01/07 02:22:52;;;;;;;21.33;7.45;;;;;;;;;;4982696;28;20568;-78
2024/01/07 02:25:17;;;;;;;14.82;6.57;;;;;;;;;;4986369;28;20116;-77
2024/01/07 02:27:42;;;;;;;16.00;7.22;;;;;;;;;;4987252;28;20062;-78
2024/01/07 02:30:08;;;;;;;18.67;7.13;;;;;;;;;;4980555;28;20534;-78
2024/01/07 02:32:35;;;;;;;16.23;7.38;;;;;;;;;;4989630;28;20031;-77
2024/01/07 02:35:01;;;;;;;20.95;7.60;;;;;;;;;;4992426;28;20035;-77
2024/01/07 02:37:26;;;;;;;15.13;6.63;;;;;;;;;;4985344;28;20038;-77
2024/01/07 02:39:52;;;;;;;17.45;7.47;;;;;;;;;;4990403;28;20030;-78
2024/01/07 02:42:17;;;;;;;17.73;6.80;;;;;;;;;;4990348;28;20525;-77
2024/01/07 02:44:42;;;;;;;17.15;6.97;;;;;;;;;;4988864;28;20031;-78
2024/01/07 02:47:08;;;;;;;21.08;8.02;;;;;;;;;;4987907;28;20058;-77
2024/01/07 02:49:33;;;;;;;20.77;7.43;;;;;;;;;;4989497;28;20038;-77
2024/01/07 02:51:58;;;;;;;13.68;6.25;;;;;;;;;;4982704;28;20038;-77
2024/01/07 02:54:23;;;;;;;21.23;8.23;;;;;;;;;;4990718;28;20046;-77
2024/01/07 02:56:49;;;;;;;16.13;7.10;;;;;;;;;;4990213;28;20112;-77
2024/01/07 02:59:14;;;;;;;14.60;6.57;;;;;;;;;;4971703;28;20040;-77
2024/01/07 03:01:40;;;;;;;18.58;7.03;;;;;;;;;;4979769;28;20392;-78
2024/01/07 03:04:12;;;;;;;18.17;6.70;;;;;;;;;;4988372;28;20065;-77
2024/01/07 03:06:37;;;;;;;19.80;7.53;;;;;;;;;;4975937;28;20039;-79
2024/01/07 03:09:02;;;;;;;17.65;7.53;;;;;;;;;;4977842;28;20619;-78
2024/01/07 03:11:29;;;;;;;12.52;6.03;;;;;;;;;;4975872;28;20043;-76
2024/01/07 03:13:54;;;;;;;30.60;7.72;;;;;;;;;;4977865;28;20043;-77
2024/01/07 03:16:21;;;;;;;18.65;6.60;;;;;;;;;;4978179;28;20050;-78
2024/01/07 03:18:46;;;;;;;16.80;7.43;;;;;;;;;;4985865;28;20081;-79
2024/01/07 03:21:22;;;;;;;16.92;7.03;;;;;;;;;;4986846;28;20054;-79
2024/01/07 03:23:48;;;;;;;14.95;6.57;;;;;;;;;;4972038;28;20084;-79
2024/01/07 03:26:14;;;;;;;15.02;5.40;;;;;;;;;;4971510;28;20114;-79
2024/01/07 03:28:39;;;;;;;15.77;6.25;;;;;;;;;;4981576;28;20156;-79
2024/01/07 03:31:10;;;;;;;55.83;8.00;;;;;;;;;;4968476;28;20035;-77
2024/01/07 03:33:39;;;;;;;17.75;6.38;;;;;;;;;;4960762;28;20034;-77
2024/01/07 03:36:08;;;;;;;14.85;5.93;;;;;;;;;;4986194;28;20065;-79
2024/01/07 03:38:34;;;;;;;11.00;5.55;;;;;;;;;;4987838;28;20128;-80
2024/01/07 03:40:59;;;;;;;12.38;5.65;;;;;;;;;;4981290;28;20113;-78
2024/01/07 03:43:24;;;;;;;12.10;5.57;;;;;;;;;;4985178;28;20053;-79
2024/01/07 03:45:50;;;;;;;13.18;5.95;;;;;;;;;;4963967;28;20416;-78
2024/01/07 03:48:15;;;;;;;10.43;5.07;;;;;;;;;;4982188;28;20042;-78
2024/01/07 03:50:40;;;;;;;14.88;6.00;;;;;;;;;;4985640;28;20030;-76
2024/01/07 03:53:06;;;;;;;10.73;5.00;;;;;;;;;;4979756;28;20034;-78
2024/01/07 03:55:31;;;;;;;11.70;5.85;;;;;;;;;;4965599;28;20054;-78
2024/01/07 03:57:56;;;;;;;13.68;6.15;;;;;;;;;;4966406;28;20490;-77
2024/01/07 04:00:22;;;;;;;9.60;5.25;;;;;;;;;;4982233;28;20507;-79
2024/01/07 04:02:47;;;;;;;11.80;5.65;;;;;;;;;;4982172;28;20085;-79
2024/01/07 04:05:14;;;;;;;10.07;5.10;;;;;;;;;;4990723;28;20061;-79
2024/01/07 04:07:40;;;;;;;14.38;5.88;;;;;;;;;;4985700;28;20503;-79
2024/01/07 04:10:05;;;;;;;35.33;6.78;;;;;;;;;;4982450;28;20068;-80
2024/01/07 04:12:31;;;;;;;10.23;5.25;;;;;;;;;;4986436;28;20062;-78
2024/01/07 04:14:56;;;;;;;11.60;5.50;;;;;;;;;;4991133;28;20530;-77
2024/01/07 04:17:21;;;;;;;63.97;8.27;;;;;;;;;;4981857;28;20129;-80
2024/01/07 04:19:47;;;;;;;14.13;5.85;;;;;;;;;;4981481;28;20046;-79
2024/01/07 04:22:12;;;;;;;79.53;7.35;;;;;;;;;;4980689;28;20048;-79
2024/01/07 04:24:41;;;;;;;10.77;5.15;;;;;;;;;;4982419;28;20464;-78
2024/01/07 04:27:06;;;;;;;8.32;4.60;;;;;;;;;;4982708;28;20042;-79
2024/01/07 04:29:32;;;;;;;8.07;4.65;;;;;;;;;;4989123;28;20077;-79
2024/01/07 04:31:57;;;;;;;8.57;4.40;;;;;;;;;;4989700;28;20038;-78
2024/01/07 04:34:22;;;;;;;8.57;4.53;;;;;;;;;;4977365;28;20042;-78
2024/01/07 04:36:47;;;;;;;16.52;5.47;;;;;;;;;;4983829;28;20054;-78
2024/01/07 04:39:13;;;;;;;9.63;4.95;;;;;;;;;;4979553;28;20065;-79
2024/01/07 04:41:38;;;;;;;9.32;5.07;;;;;;;;;;4985432;28;20090;-77
2024/01/07 04:44:03;;;;;;;9.52;4.70;;;;;;;;;;4982043;28;20046;-78
2024/01/07 04:46:29;;;;;;;7.85;4.78;;;;;;;;;;4980721;28;20046;-79
2024/01/07 04:48:54;;;;;;;8.73;5.00;;;;;;;;;;4971082;28;20043;-79
2024/01/07 04:51:19;;;;;;;16.85;8.25;;;;;;;;;;4977478;28;20074;-79
2024/01/07 04:53:44;;;;;;;11.35;5.80;;;;;;;;;;4975924;28;20085;-78
2024/01/07 04:56:10;;;;;;;10.32;5.28;;;;;;;;;;4979192;28;20051;-78
2024/01/07 04:58:35;;;;;;;11.93;5.05;;;;;;;;;;4979932;28;20035;-79
2024/01/07 05:01:01;;;;;;;8.98;4.55;;;;;;;;;;4980161;28;20062;-78
2024/01/07 05:03:26;;;;;;;9.05;4.88;;;;;;;;;;4982645;28;20114;-79
2024/01/07 05:05:52;;;;;;;7.63;4.43;;;;;;;;;;4980506;28;20092;-78
2024/01/07 05:08:17;;;;;;;6.00;4.45;;;;;;;;;;4982463;28;20109;-79
2024/01/07 05:10:42;;;;;;;9.68;4.93;;;;;;;;;;4980458;28;20046;-79
2024/01/07 05:13:07;;;;;;;10.40;4.93;;;;;;;;;;4983207;28;20109;-80
2024/01/07 05:15:33;;;;;;;11.75;5.47;;;;;;;;;;4983420;28;20082;-81
2024/01/07 05:17:58;;;;;;;13.15;5.25;;;;;;;;;;4976540;28;20046;-79
2024/01/07 05:20:23;;;;;;;8.57;4.70;;;;;;;;;;4981470;28;20034;-79
2024/01/07 05:22:49;;;;;;;7.00;3.97;;;;;;;;;;4987239;28;20038;-78
2024/01/07 05:25:14;;;;;;;8.32;4.50;;;;;;;;;;4980196;28;20105;-78
2024/01/07 05:27:39;;;;;;;12.65;5.10;;;;;;;;;;4961821;28;20035;-80
2024/01/07 05:30:06;;;;;;;10.98;5.40;;;;;;;;;;4984657;28;20595;-80
2024/01/07 05:32:31;;;;;;;9.60;5.10;;;;;;;;;;4982461;28;20057;-78
2024/01/07 05:34:56;;;;;;;12.43;5.22;;;;;;;;;;4983062;28;20035;-78
2024/01/07 05:37:21;;;;;;;9.80;4.82;;;;;;;;;;4976246;28;20150;-79
2024/01/07 05:39:47;;;;;;;9.43;4.60;;;;;;;;;;4954280;28;20049;-78
2024/01/07 05:42:12;;;;;;;9.05;5.25;;;;;;;;;;4986030;28;20027;-78
2024/01/07 05:44:37;;;;;;;12.18;5.78;;;;;;;;;;4976947;28;20546;-79
2024/01/07 05:47:04;;;;;;;9.02;5.00;;;;;;;;;;4976950;28;20496;-78
2024/01/07 05:49:29;;;;;;;8.55;4.22;;;;;;;;;;4977056;28;20058;-80
2024/01/07 05:51:54;;;;;;;9.70;5.05;;;;;;;;;;4978213;28;20035;-80
2024/01/07 05:54:19;;;;;;;7.90;4.20;;;;;;;;;;4978781;28;20415;-79
2024/01/07 05:56:45;;;;;;;10.10;5.47;;;;;;;;;;4983300;28;20125;-80
2024/01/07 05:59:10;;;;;;;10.40;5.10;;;;;;;;;;4981833;28;20400;-81
2024/01/07 06:01:35;;;;;;;7.47;4.88;;;;;;;;;;4987201;28;20042;-80
2024/01/07 06:04:01;;;;;;;8.95;4.57;;;;;;;;;;4982246;28;20550;-79
2024/01/07 06:06:26;;;;;;;9.57;4.97;;;;;;;;;;4962986;28;20043;-79
2024/01/07 06:08:51;;;;;;;9.45;5.25;;;;;;;;;;4990525;28;20042;-79
2024/01/07 06:11:20;;;;;;;7.85;4.60;;;;;;;;;;4981385;28;20034;-79
2024/01/07 06:13:45;;;;;;;8.40;5.28;;;;;;;;;;4983081;28;20043;-79
2024/01/07 06:16:10;;;;;;;15.80;5.78;;;;;;;;;;4981857;28;20038;-78
2024/01/07 06:18:36;;;;;;;7.55;4.88;;;;;;;;;;4984058;28;20038;-79
2024/01/07 06:21:01;;;;;;;8.38;4.72;;;;;;;;;;4978377;28;20464;-79
2024/01/07 06:23:26;;;;;;;36.58;6.47;;;;;;;;;;4980882;28;20066;-79
2024/01/07 06:25:51;;;;;;;7.32;4.70;;;;;;;;;;4984996;28;20035;-79
2024/01/07 06:28:17;;;;;;;13.35;6.18;;;;;;;;;;4966586;28;20040;-79
2024/01/07 06:30:42;;;;;;;9.30;5.68;;;;;;;;;;4980857;28;20503;-79
2024/01/07 06:33:07;;;;;;;7.97;5.07;;;;;;;;;;4983572;28;20038;-79
2024/01/07 06:35:33;;;;;;;10.20;6.15;;;;;;;;;;4991855;28;20043;-80
2024/01/07 06:37:58;;;;;;;13.82;6.57;;;;;;;;;;4985408;28;20038;-81
2024/01/07 06:40:23;;;;;;;9.57;5.45;;;;;;;;;;4976462;28;20522;-78
2024/01/07 06:42:49;;;;;;;10.68;5.97;;;;;;;;;;4981102;28;20034;-79
2024/01/07 06:45:16;;;;;;;15.32;6.85;;;;;;;;;;4981738;28;20062;-80
2024/01/07 06:47:42;;;;;;;11.43;6.47;;;;;;;;;;4986617;28;20138;-78
2024/01/07 06:50:07;;;;;;;12.10;6.57;;;;;;;;;;4985695;28;20181;-79
2024/01/07 06:52:33;;;;;;;12.30;6.75;;;;;;;;;;4979948;28;20519;-80
2024/01/07 06:54:58;;;;;;;13.60;6.78;;;;;;;;;;4983056;28;20039;-79
2024/01/07 06:57:23;;;;;;;12.32;6.88;;;;;;;;;;4943102;28;20045;-77
2024/01/07 06:59:49;;;;;;;13.00;7.35;;;;;;;;;;4981050;28;20069;-81
2024/01/07 07:02:14;;;;;;;14.63;7.28;;;;;;;;;;4987185;28;20426;-79
2024/01/07 07:04:39;;;;;;;14.45;7.22;;;;;;;;;;4959688;28;20555;-78
2024/01/07 07:07:04;;;;;;;13.52;6.90;;;;;;;;;;4975256;28;20055;-79
2024/01/07 07:09:30;;;;;;;13.73;7.68;;;;;;;;;;4968745;28;20505;-80
2024/01/07 07:11:55;;;;;;;12.48;6.90;;;;;;;;;;4982669;28;20062;-81
2024/01/07 07:14:20;;;;;;;10.60;6.53;;;;;;;;;;4979088;28;20125;-79
2024/01/07 07:16:46;;;;;;;15.02;7.35;;;;;;;;;;4988408;28;20042;-78
2024/01/07 07:19:14;;;;;;;11.40;6.45;;;;;;;;;;4983685;28;20088;-79
2024/01/07 07:21:40;;;;;;;12.27;6.47;;;;;;;;;;4982209;28;20063;-78
2024/01/07 07:24:05;;;;;;;12.90;7.60;;;;;;;;;;4982115;28;20254;-79
2024/01/07 07:26:31;;;;;;;15.32;7.25;;;;;;;;;;4979810;28;20088;-79
2024/01/07 07:28:56;;;;;;;12.68;7.18;;;;;;;;;;4973035;28;20038;-81
2024/01/07 07:31:22;;;;;;;12.20;6.47;;;;;;;;;;4964479;28;20055;-78
2024/01/07 07:33:47;;;;;;;11.60;6.28;;;;;;;;;;4980715;28;20173;-80
2024/01/07 07:36:12;;;;;;;12.70;6.40;;;;;;;;;;4983460;28;20035;-80
2024/01/07 07:38:37;;;;;;;11.45;6.63;;;;;;;;;;4981628;28;20035;-78
2024/01/07 07:41:03;;;;;;;11.43;6.78;;;;;;;;;;4979053;28;20035;-78
2024/01/07 07:43:29;;;;;;;14.07;7.28;;;;;;;;;;4980873;28;20046;-79
2024/01/07 07:45:54;;;;;;;65.32;10.07;;;;;;;;;;4967674;28;20470;-79
2024/01/07 07:48:20;;;;;;;12.90;7.28;;;;;;;;;;4975086;28;20093;-77
2024/01/07 07:50:45;;;;;;;11.70;6.88;;;;;;;;;;4972625;28;20089;-79
2024/01/07 07:53:11;;;;;;;12.88;7.22;;;;;;;;;;4979460;28;20038;-81
2024/01/07 07:55:36;;;;;;;11.68;7.18;;;;;;;;;;4972293;28;20045;-80
2024/01/07 07:58:01;;;;;;;12.98;7.60;;;;;;;;;;4968173;28;20058;-78
2024/01/07 08:00:27;;;;;;;12.98;7.07;;;;;;;;;;4979828;28;20054;-79
2024/01/07 08:02:53;;;;;;;13.18;7.57;;;;;;;;;;4968680;28;20034;-78
2024/01/07 08:05:18;;;;;;;9.63;6.25;;;;;;;;;;4982159;28;20045;-78
2024/01/07 08:07:44;;;;;;;9.68;6.40;;;;;;;;;;4963680;28;20038;-81
2024/01/07 08:10:09;;;;;;;9.18;5.65;;;;;;;;;;4981094;28;20046;-79
2024/01/07 08:12:35;;;;;;;10.63;5.85;;;;;;;;;;4970560;28;20046;-79
2024/01/07 08:15:00;;;;;;;10.15;6.40;;;;;;;;;;4961434;28;20042;-80
2024/01/07 08:17:25;;;;;;;7.63;5.80;;;;;;;;;;4982312;28;20066;-79
2024/01/07 08:19:51;;;;;;;9.00;5.90;;;;;;;;;;4965955;28;20133;-78
2024/01/07 08:22:17;;;;;;;9.85;6.40;;;;;;;;;;4973827;28;20042;-78
2024/01/07 08:24:42;;;;;;;20.40;6.43;;;;;;;;;;4976549;28;20031;-81
2024/01/07 08:27:08;;;;;;;4.57;4.10;;;;;;;;;;4979068;28;20570;-79
2024/01/07 08:29:34;;;;;;;2.67;2.47;;;;;;;;;;4985066;28;20057;-81
2024/01/07 08:31:59;;;;;;;3.05;2.85;;;;;;;;;;4983393;28;20125;-79
2024/01/07 08:34:24;;;;;;;4.45;3.45;;;;;;;;;;4989876;28;20526;-81
2024/01/07 08:36:50;;;;;;;2.92;2.63;;;;;;;;;;4983625;28;20459;-81
2024/01/07 08:39:15;;;;;;;3.22;2.50;;;;;;;;;;4988438;28;20042;-80
2024/01/07 08:41:41;;;;;;;4.63;3.95;;;;;;;;;;4990129;28;20030;-81
2024/01/07 08:44:08;;;;;;;3.30;3.00;;;;;;;;;;4980570;28;20049;-81
2024/01/07 08:46:33;;;;;;;3.03;2.35;;;;;;;;;;4984488;28;20038;-80
2024/01/07 08:48:59;;;;;;;2.90;2.33;;;;;;;;;;4987733;28;20174;-78
2024/01/07 08:51:24;;;;;;;3.95;3.47;;;;;;;;;;4972739;28;20277;-77
2024/01/07 08:53:49;;;;;;;3.40;3.10;;;;;;;;;;4989722;28;20506;-78
2024/01/07 08:56:15;;;;;;;3.08;2.72;;;;;;;;;;4983485;28;20092;-80
2024/01/07 08:58:41;;;;;;;3.33;2.58;;;;;;;;;;4985753;28;20061;-80
2024/01/07 09:01:07;;;;;;;3.35;3.05;;;;;;;;;;4972196;28;20038;-80
2024/01/07 09:03:32;;;;;;;2.70;2.50;;;;;;;;;;4982576;28;20073;-80
2024/01/07 09:05:57;;;;;;;4.30;3.10;;;;;;;;;;4949310;28;20054;-80
2024/01/07 09:08:23;;;;;;;4.47;3.92;;;;;;;;;;4985052;28;20038;-79
2024/01/07 09:10:48;;;;;;;4.03;3.63;;;;;;;;;;4982299;28;20170;-81
2024/01/07 09:13:13;;;;;;;2.20;2.05;;;;;;;;;;4983940;28;20054;-80
2024/01/07 09:15:38;;;;;;;3.53;3.03;;;;;;;;;;4987214;28;20039;-81
2024/01/07 09:18:04;;;;;;;3.53;3.15;;;;;;;;;;4981661;28;20022;-80
2024/01/07 09:20:30;;;;;;;3.35;3.05;;;;;;;;;;4980959;28;20030;-80
2024/01/07 09:22:55;;;;;;;3.45;2.88;;;;;;;;;;4983241;28;20407;-79
2024/01/07 09:25:20;;;;;;;2.75;2.17;;;;;;;;;;4981849;28;20034;-79
2024/01/07 09:27:45;;;;;;;6.00;3.88;;;;;;;;;;4984448;28;20623;-78
2024/01/07 09:30:14;;;;;;;2.78;2.42;;;;;;;;;;4983166;28;20105;-82
2024/01/07 09:32:40;;;;;;;2.55;2.35;;;;;;;;;;4955893;28;20031;-80
2024/01/07 09:35:06;;;;;;;2.28;2.00;;;;;;;;;;4987384;28;20070;-80
2024/01/07 09:37:31;;;;;;;2.13;1.98;;;;;;;;;;4971559;28;20101;-79
2024/01/07 09:39:56;;;;;;;1.88;1.77;;;;;;;;;;4988192;28;20039;-80
2024/01/07 09:42:22;;;;;;;2.60;2.40;;;;;;;;;;4985176;28;20407;-80
2024/01/07 09:44:48;;;;;;;2.40;2.20;;;;;;;;;;4986748;28;20069;-80
2024/01/07 09:47:14;;;;;;;2.60;2.40;;;;;;;;;;4981897;28;20041;-77
2024/01/07 09:49:40;;;;;;;3.40;2.42;;;;;;;;;;4978255;28;20106;-80
2024/01/07 09:52:08;;;;;;;3.67;3.30;;;;;;;;;;4978087;28;20185;-80
2024/01/07 09:54:38;;;;;;;2.53;2.33;;;;;;;;;;4983308;28;20054;-79
2024/01/07 09:57:08;;;;;;;2.30;2.10;;;;;;;;;;4988433;28;20450;-77
2024/01/07 09:59:34;;;;;;;2.60;2.40;;;;;;;;;;4986532;28;20026;-78
2024/01/07 10:02:00;;;;;;;3.95;2.47;;;;;;;;;;4986977;28;20038;-78
2024/01/07 10:04:27;;;;;;;6.53;3.00;;;;;;;;;;4984185;28;20518;-80
2024/01/07 10:06:54;;;;;;;2.60;2.25;;;;;;;;;;4981654;28;20042;-77
2024/01/07 10:09:21;;;;;;;2.90;2.30;;;;;;;;;;4983597;28;20061;-80
2024/01/07 10:11:47;;;;;;;2.08;1.98;;;;;;;;;;4982115;28;20100;-79
2024/01/07 10:14:12;;;;;;;3.45;2.08;;;;;;;;;;4988318;28;20491;-78
2024/01/07 10:16:38;;;;;;;1.92;1.83;;;;;;;;;;4978387;28;20077;-79
2024/01/07 10:19:03;;;;;;;2.42;2.30;;;;;;;;;;4978175;28;20080;-78
2024/01/07 10:21:29;;;;;;;3.15;2.78;;;;;;;;;;4959229;28;20518;-80
2024/01/07 10:24:11;;;;;;;2.13;2.03;;;;;;;;;;4979865;28;20034;-78
2024/01/07 10:26:40;;;;;;;1.77;1.67;;;;;;;;;;4960586;28;20042;-79
2024/01/07 10:29:08;;;;;;;2.38;2.17;;;;;;;;;;4978160;28;20126;-80
2024/01/07 10:31:33;;;;;;;4.65;2.42;;;;;;;;;;4978159;28;20081;-79
2024/01/07 10:33:58;;;;;;;2.00;1.85;;;;;;;;;;4983792;28;20519;-78
2024/01/07 10:36:25;;;;;;;4.00;2.70;;;;;;;;;;4978412;28;20364;-78
2024/01/07 10:38:50;;;;;;;2.63;2.42;;;;;;;;;;4977862;28;20133;-79
2024/01/07 10:41:18;;;;;;;1.80;1.70;;;;;;;;;;4965433;28;20054;-79
2024/01/07 10:43:46;;;;;;;2.33;1.85;;;;;;;;;;4970046;28;20045;-80
2024/01/07 10:46:14;;;;;;;3.45;2.35;;;;;;;;;;4983731;28;20096;-81
2024/01/07 10:48:52;;;;;;;1.80;1.70;;;;;;;;;;4986840;28;20447;-79
2024/01/07 10:51:20;;;;;;;2.58;2.35;;;;;;;;;;4970991;28;20048;-79
2024/01/07 10:53:50;;;;;;;2.22;2.03;;;;;;;;;;4977125;28;20062;-78
2024/01/07 10:56:19;;;;;;;3.20;2.88;;;;;;;;;;4983710;28;20451;-78
2024/01/07 10:58:46;;;;;;;2.97;2.63;;;;;;;;;;4985589;28;20088;-79
2024/01/07 11:01:12;;;;;;;3.35;2.40;;;;;;;;;;4979246;28;20100;-78
2024/01/07 11:03:40;;;;;;;2.22;2.03;;;;;;;;;;4983279;28;20522;-79
2024/01/07 11:06:35;;;;;;;3.08;2.40;;;;;;;;;;4980809;28;20043;-79
2024/01/07 11:09:17;;;;;;;2.92;2.00;;;;;;;;;;4939237;28;20043;-79
2024/01/07 11:11:42;;;;;;;3.67;2.58;;;;;;;;;;4972037;28;20062;-81
2024/01/07 11:14:32;;;;;;;1.70;1.60;;;;;;;;;;4976815;28;20035;-79
2024/01/07 11:16:58;;;;;;;3.03;2.63;;;;;;;;;;4982374;28;20134;-79
2024/01/07 11:19:23;;;;;;;2.97;2.67;;;;;;;;;;4959800;28;20117;-77
2024/01/07 11:21:48;;;;;;;2.78;2.50;;;;;;;;;;4979995;28;20060;-77
2024/01/07 11:24:41;;;;;;;2.97;2.63;;;;;;;;;;4979004;28;20057;-78
2024/01/07 11:27:09;;;;;;;3.15;2.83;;;;;;;;;;4961862;28;20050;-78
2024/01/07 11:29:35;;;;;;;3.88;3.47;;;;;;;;;;4965880;28;20039;-78
2024/01/07 11:32:00;;;;;;;4.72;3.72;;;;;;;;;;4962921;28;20061;-78
2024/01/07 11:34:51;;;;;;;3.38;2.80;;;;;;;;;;4975690;28;20035;-79
2024/01/07 11:37:17;;;;;;;2.33;2.13;;;;;;;;;;4975914;28;20047;-77
2024/01/07 11:39:46;;;;;;;3.00;2.67;;;;;;;;;;4962438;28;20038;-80
2024/01/07 11:42:12;;;;;;;3.70;2.75;;;;;;;;;;4976315;28;20031;-76
2024/01/07 11:44:44;;;;;;;3.20;2.92;;;;;;;;;;4977792;28;20039;-78
2024/01/07 11:47:10;;;;;;;4.22;3.22;;;;;;;;;;4982001;28;20049;-78
2024/01/07 11:49:35;;;;;;;3.75;3.15;;;;;;;;;;4959268;28;20051;-79
2024/01/07 11:52:02;;;;;;;4.47;3.10;;;;;;;;;;4982404;28;20039;-79
2024/01/07 11:54:27;;;;;;;3.45;2.97;;;;;;;;;;4972641;28;20112;-78
2024/01/07 11:56:53;;;;;;;3.92;2.63;;;;;;;;;;4961947;28;20507;-79
2024/01/07 11:59:19;;;;;;;3.70;2.92;;;;;;;;;;4973467;28;20043;-78
2024/01/07 12:01:44;;;;;;;1.20;1.15;;;;;;;;;;4971390;28;20600;-78
2024/01/07 12:04:10;;;;;;;2.80;2.50;;;;;;;;;;4975144;28;20042;-80
2024/01/07 12:06:35;;;;;;;2.92;2.63;;;;;;;;;;4972859;28;20031;-80
2024/01/07 12:09:01;;;;;;;2.53;2.33;;;;;;;;;;4972435;28;20503;-77
2024/01/07 12:11:26;;;;;;;2.75;2.53;;;;;;;;;;4971280;28;20046;-80
2024/01/07 12:13:52;;;;;;;2.58;2.35;;;;;;;;;;4958464;28;20133;-80
2024/01/07 12:16:17;;;;;;;2.95;2.35;;;;;;;;;;4972775;28;20558;-78
2024/01/07 12:18:43;;;;;;;2.83;2.38;;;;;;;;;;4971939;28;20038;-78
2024/01/07 12:21:08;;;;;;;4.85;2.78;;;;;;;;;;4982052;28;20050;-80
2024/01/07 12:23:37;;;;;;;3.28;2.60;;;;;;;;;;4962574;28;20054;-79
2024/01/07 12:26:10;;;;;;;4.95;3.30;;;;;;;;;;4974268;28;20053;-79
2024/01/07 12:28:36;;;;;;;5.90;4.10;;;;;;;;;;4970736;28;20034;-76
2024/01/07 12:31:03;;;;;;;4.25;3.47;;;;;;;;;;4971239;28;20138;-77
2024/01/07 12:33:31;;;;;;;5.15;4.22;;;;;;;;;;4959109;28;20038;-79
2024/01/07 12:35:57;;;;;;;5.43;4.30;;;;;;;;;;4973022;28;20035;-78
2024/01/07 12:38:27;;;;;;;6.45;4.63;;;;;;;;;;4954671;28;20190;-79
2024/01/07 12:40:53;;;;;;;4.07;3.22;;;;;;;;;;4972503;28;20035;-78
2024/01/07 12:43:19;;;;;;;4.88;3.60;;;;;;;;;;4972004;28;20054;-79
2024/01/07 12:45:44;;;;;;;3.70;2.88;;;;;;;;;;4967619;28;20422;-81
2024/01/07 12:48:09;;;;;;;6.05;4.32;;;;;;;;;;4980226;28;20043;-78
2024/01/07 12:50:35;;;;;;;6.03;4.53;;;;;;;;;;4975818;28;20042;-76
2024/01/07 12:53:00;;;;;;;3.40;3.03;;;;;;;;;;4985755;28;20041;-77
2024/01/07 12:55:26;;;;;;;6.78;3.92;;;;;;;;;;4984932;28;20142;-79
2024/01/07 12:57:51;;;;;;;4.25;3.33;;;;;;;;;;4964242;28;20471;-80
2024/01/07 13:00:17;;;;;;;4.70;3.55;;;;;;;;;;4971549;28;20565;-77
2024/01/07 13:02:43;;;;;;;5.78;4.07;;;;;;;;;;4971635;28;20138;-79
2024/01/07 13:05:08;;;;;;;6.40;4.20;;;;;;;;;;4974623;28;20039;-81
2024/01/07 13:07:34;;;;;;;14.43;3.80;;;;;;;;;;4976758;28;20049;-80
2024/01/07 13:10:00;;;;;;;2.45;2.25;;;;;;;;;;4959450;28;20043;-79
2024/01/07 13:12:26;;;;;;;6.53;5.32;;;;;;;;;;4957721;28;20050;-77
2024/01/07 13:14:51;;;;;;;5.13;3.30;;;;;;;;;;4973862;28;20042;-77
2024/01/07 13:17:17;;;;;;;3.92;2.85;;;;;;;;;;4973475;28;20042;-79
2024/01/07 13:19:42;;;;;;;3.75;3.35;;;;;;;;;;4956067;28;20046;-78
2024/01/07 13:22:08;;;;;;;5.47;3.50;;;;;;;;;;4972224;28;20062;-78
2024/01/07 13:24:33;;;;;;;4.43;3.63;;;;;;;;;;4965045;28;20510;-78
2024/01/07 13:26:58;;;;;;;4.53;3.22;;;;;;;;;;4979676;28;20031;-79
2024/01/07 13:29:24;;;;;;;3.90;3.38;;;;;;;;;;4953704;28;20046;-78
2024/01/07 13:31:50;;;;;;;5.70;3.20;;;;;;;;;;4982823;28;20062;-78
2024/01/07 13:34:15;;;;;;;1.98;1.73;;;;;;;;;;4979744;28;20035;-78
2024/01/07 13:36:40;;;;;;;8.50;3.25;;;;;;;;;;4966665;28;20071;-76
2024/01/07 13:39:07;;;;;;;6.05;2.88;;;;;;;;;;4967538;28;20064;-77
2024/01/07 13:41:33;;;;;;;2.67;2.22;;;;;;;;;;4966433;28;20035;-77
2024/01/07 13:43:59;;;;;;;4.40;3.15;;;;;;;;;;4973881;28;20077;-80
2024/01/07 13:46:25;;;;;;;2.95;2.55;;;;;;;;;;4985480;28;20069;-78
2024/01/07 13:48:51;;;;;;;3.35;2.80;;;;;;;;;;4965650;28;20101;-76
2024/01/07 13:51:19;;;;;;;3.90;3.17;;;;;;;;;;4969508;28;20061;-76
2024/01/07 13:53:47;;;;;;;3.65;3.00;;;;;;;;;;4965622;28;20046;-76
2024/01/07 13:56:13;;;;;;;3.05;2.72;;;;;;;;;;4970256;28;20054;-78
2024/01/07 13:58:38;;;;;;;5.75;4.63;;;;;;;;;;4967338;28;20066;-77
2024/01/07 14:01:05;;;;;;;5.55;4.07;;;;;;;;;;4961359;28;20031;-75
2024/01/07 14:03:32;;;;;;;4.50;3.03;;;;;;;;;;4962605;28;20079;-77
2024/01/07 14:05:57;;;;;;;6.13;3.88;;;;;;;;;;4965783;28;20066;-77
2024/01/07 14:08:23;;;;;;;4.88;3.33;;;;;;;;;;4971943;28;20061;-78
2024/01/07 14:10:48;;;;;;;3.90;3.05;;;;;;;;;;4948310;28;20122;-76
2024/01/07 14:13:13;;;;;;;4.65;3.40;;;;;;;;;;4937132;28;20042;-77
2024/01/07 14:15:39;;;;;;;6.65;4.05;;;;;;;;;;4966224;28;20103;-77
2024/01/07 14:18:04;;;;;;;3.78;3.35;;;;;;;;;;4976389;28;20058;-75
2024/01/07 14:20:29;;;;;;;4.80;3.22;;;;;;;;;;4950907;28;20062;-77
2024/01/07 14:22:55;;;;;;;7.28;3.65;;;;;;;;;;4965684;28;20042;-78
2024/01/07 14:25:20;;;;;;;4.70;2.90;;;;;;;;;;4961754;28;20034;-77
2024/01/07 14:27:46;;;;;;;5.22;4.03;;;;;;;;;;4979244;28;20039;-78
2024/01/07 14:30:12;;;;;;;6.90;4.53;;;;;;;;;;4978550;28;20030;-77